createdAt,value
2023-04-10T00:00:09.392Z,5.61
2023-04-10T00:01:09.417Z,5.71
2023-04-10T00:02:09.520Z,5.65
2023-04-10T00:03:09.575Z,5.63
2023-04-10T00:04:09.646Z,5.60
2023-04-10T00:05:09.370Z,5.48
2023-04-10T00:06:09.339Z,5.51
2023-04-10T00:07:09.307Z,5.58
2023-04-10T00:08:09.316Z,5.45
2023-04-10T00:09:09.321Z,5.48
2023-04-10T00:10:09.324Z,5.48
2023-04-10T00:11:09.275Z,5.49
2023-04-10T00:12:09.249Z,5.48
2023-04-10T00:13:09.292Z,5.40
2023-04-10T00:14:09.257Z,5.38
2023-04-10T00:15:09.250Z,5.45
2023-04-10T00:16:09.242Z,5.38
2023-04-10T00:17:09.243Z,5.33
2023-04-10T00:18:09.217Z,5.39
2023-04-10T00:19:09.211Z,5.42
2023-04-10T00:20:09.206Z,5.45
2023-04-10T00:21:09.180Z,5.38
2023-04-10T00:22:09.192Z,5.42
2023-04-10T00:23:09.192Z,5.39
2023-04-10T00:24:09.173Z,5.39
2023-04-10T00:25:09.165Z,5.49
2023-04-10T00:26:09.148Z,5.43
2023-04-10T00:27:09.146Z,5.45
2023-04-10T00:28:09.097Z,5.31
2023-04-10T00:29:09.118Z,5.40
2023-04-10T00:30:09.213Z,5.42
2023-04-10T00:31:09.085Z,5.49
2023-04-10T00:32:09.127Z,5.45
2023-04-10T00:33:09.144Z,5.51
2023-04-10T00:34:09.092Z,5.57
2023-04-10T00:35:09.065Z,5.48
2023-04-10T00:36:09.085Z,5.43
2023-04-10T00:37:08.997Z,5.49
2023-04-10T00:38:09.026Z,5.49
2023-04-10T00:39:09.071Z,5.45
2023-04-10T00:40:09.038Z,5.40
2023-04-10T00:41:09.015Z,5.46
2023-04-10T00:42:08.992Z,5.45
2023-04-10T00:43:08.977Z,5.45
2023-04-10T00:44:08.974Z,5.40
2023-04-10T00:45:08.961Z,5.40
2023-04-10T00:46:09.005Z,5.43
2023-04-10T00:47:08.914Z,5.46
2023-04-10T00:48:08.946Z,5.30
2023-04-10T00:49:08.928Z,5.30
2023-04-10T00:50:08.900Z,5.24
2023-04-10T00:51:08.888Z,5.22
2023-04-10T00:52:08.860Z,5.22
2023-04-10T00:53:08.860Z,5.20
2023-04-10T00:54:08.871Z,5.25
2023-04-10T00:55:08.826Z,5.15
2023-04-10T00:56:08.845Z,5.18
2023-04-10T00:57:08.840Z,5.12
2023-04-10T00:58:08.792Z,5.22
2023-04-10T00:59:08.801Z,5.10
2023-04-10T01:00:08.775Z,5.07
2023-04-10T01:01:08.905Z,5.18
2023-04-10T01:02:08.848Z,5.04
2023-04-10T01:03:08.872Z,5.10
2023-04-10T01:04:08.831Z,5.09
2023-04-10T01:05:08.778Z,5.09
2023-04-10T01:06:08.745Z,5.10
2023-04-10T01:07:08.746Z,5.12
2023-04-10T01:08:08.730Z,5.03
2023-04-10T01:09:08.708Z,5.00
2023-04-10T01:10:08.692Z,5.03
2023-04-10T01:11:09.638Z,5.06
2023-04-10T01:12:08.686Z,5.10
2023-04-10T01:13:08.704Z,5.03
2023-04-10T01:14:08.685Z,5.13
2023-04-10T01:15:08.650Z,5.02
2023-04-10T01:16:08.626Z,5.03
2023-04-10T01:17:08.789Z,5.03
2023-04-10T01:18:08.776Z,5.03
2023-04-10T01:19:08.596Z,5.04
2023-04-10T01:20:08.585Z,4.99
2023-04-10T01:21:08.598Z,4.88
2023-04-10T01:22:08.572Z,4.86
2023-04-10T01:23:08.592Z,4.80
2023-04-10T01:24:08.626Z,4.77
2023-04-10T01:25:08.581Z,4.84
2023-04-10T01:26:08.512Z,4.72
2023-04-10T01:27:08.510Z,4.80
2023-04-10T01:28:08.508Z,4.75
2023-04-10T01:29:08.482Z,4.72
2023-04-10T01:30:08.504Z,4.80
2023-04-10T01:31:08.536Z,4.72
2023-04-10T01:32:08.477Z,4.69
2023-04-10T01:33:08.458Z,4.73
2023-04-10T01:34:08.510Z,4.75
2023-04-10T01:35:08.461Z,4.69
2023-04-10T01:36:08.468Z,4.77
2023-04-10T01:37:08.510Z,4.84
2023-04-10T01:38:08.432Z,4.78
2023-04-10T01:39:08.459Z,4.67
2023-04-10T01:40:08.404Z,4.55
2023-04-10T01:41:08.369Z,4.50
2023-04-10T01:42:08.415Z,4.48
2023-04-10T01:43:08.347Z,4.51
2023-04-10T01:44:08.382Z,4.47
2023-04-10T01:45:08.327Z,4.45
2023-04-10T01:46:08.387Z,4.41
2023-04-10T01:47:08.346Z,4.44
2023-04-10T01:48:08.334Z,4.44
2023-04-10T01:49:08.331Z,4.37
2023-04-10T01:50:08.277Z,4.50
2023-04-10T01:51:08.316Z,4.41
2023-04-10T01:52:08.313Z,4.40
2023-04-10T01:53:08.276Z,4.42
2023-04-10T01:54:08.263Z,4.34
2023-04-10T01:55:08.241Z,4.41
2023-04-10T01:56:08.275Z,4.29
2023-04-10T01:57:08.237Z,4.42
2023-04-10T01:58:08.248Z,4.37
2023-04-10T01:59:08.210Z,4.50
2023-04-10T02:00:08.217Z,4.47
2023-04-10T02:01:10.226Z,4.40
2023-04-10T02:02:09.309Z,4.45
2023-04-10T02:03:08.372Z,4.47
2023-04-10T02:04:08.236Z,4.50
2023-04-10T02:05:08.198Z,4.50
2023-04-10T02:06:08.154Z,4.50
2023-04-10T02:07:08.136Z,4.55
2023-04-10T02:08:08.123Z,4.55
2023-04-10T02:09:08.111Z,4.45
2023-04-10T02:10:08.140Z,4.47
2023-04-10T02:11:08.140Z,4.45
2023-04-10T02:12:08.092Z,4.36
2023-04-10T02:13:08.069Z,4.40
2023-04-10T02:14:08.079Z,4.48
2023-04-10T02:15:08.068Z,4.42
2023-04-10T02:16:08.073Z,4.42
2023-04-10T02:17:08.049Z,4.37
2023-04-10T02:18:08.003Z,4.41
2023-04-10T02:19:07.999Z,4.34
2023-04-10T02:20:08.008Z,4.32
2023-04-10T02:21:08.013Z,4.34
2023-04-10T02:22:07.983Z,4.33
2023-04-10T02:23:08.022Z,4.29
2023-04-10T02:24:07.939Z,4.27
2023-04-10T02:25:07.970Z,4.16
2023-04-10T02:26:07.998Z,4.27
2023-04-10T02:27:07.944Z,4.24
2023-04-10T02:28:07.946Z,4.27
2023-04-10T02:29:07.940Z,4.23
2023-04-10T02:30:39.931Z,4.16
2023-04-10T02:31:07.982Z,4.30
2023-04-10T02:32:07.932Z,4.20
2023-04-10T02:33:07.863Z,4.30
2023-04-10T02:34:07.852Z,4.23
2023-04-10T02:35:07.855Z,4.20
2023-04-10T02:36:07.912Z,4.23
2023-04-10T02:37:07.842Z,4.27
2023-04-10T02:38:07.859Z,4.30
2023-04-10T02:39:07.820Z,4.23
2023-04-10T02:40:07.811Z,4.29
2023-04-10T02:41:07.830Z,4.11
2023-04-10T02:42:07.790Z,4.23
2023-04-10T02:43:07.836Z,4.16
2023-04-10T02:44:07.788Z,4.08
2023-04-10T02:45:07.791Z,4.05
2023-04-10T02:46:07.754Z,4.15
2023-04-10T02:47:08.013Z,4.00
2023-04-10T02:48:07.732Z,3.98
2023-04-10T02:49:07.742Z,4.05
2023-04-10T02:50:07.711Z,4.15
2023-04-10T02:51:07.731Z,4.20
2023-04-10T02:52:07.684Z,4.15
2023-04-10T02:53:07.707Z,4.12
2023-04-10T02:54:07.672Z,4.20
2023-04-10T02:55:07.669Z,4.09
2023-04-10T02:56:07.697Z,3.98
2023-04-10T02:57:07.668Z,4.06
2023-04-10T02:58:07.685Z,3.97
2023-04-10T02:59:07.643Z,3.98
2023-04-10T03:00:07.620Z,3.90
2023-04-10T03:01:07.636Z,3.80
2023-04-10T03:02:07.696Z,3.78
2023-04-10T03:03:07.720Z,3.86
2023-04-10T03:04:07.777Z,3.84
2023-04-10T03:05:07.632Z,3.86
2023-04-10T03:06:08.161Z,3.90
2023-04-10T03:07:08.533Z,3.86
2023-04-10T03:08:07.535Z,3.84
2023-04-10T03:09:07.587Z,3.93
2023-04-10T03:10:07.537Z,3.91
2023-04-10T03:11:07.522Z,3.86
2023-04-10T03:12:07.534Z,3.88
2023-04-10T03:13:07.506Z,3.96
2023-04-10T03:14:07.470Z,3.83
2023-04-10T03:15:07.541Z,3.90
2023-04-10T03:16:07.479Z,3.83
2023-04-10T03:17:07.493Z,3.78
2023-04-10T03:18:07.531Z,3.66
2023-04-10T03:19:07.469Z,3.52
2023-04-10T03:20:07.456Z,3.50
2023-04-10T03:21:07.429Z,3.54
2023-04-10T03:22:07.400Z,3.55
2023-04-10T03:23:07.418Z,3.51
2023-04-10T03:24:07.412Z,3.47
2023-04-10T03:25:07.395Z,3.54
2023-04-10T03:26:07.356Z,3.51
2023-04-10T03:27:07.348Z,3.57
2023-04-10T03:28:07.342Z,3.57
2023-04-10T03:29:07.357Z,3.51
2023-04-10T03:30:07.343Z,3.60
2023-04-10T03:31:07.372Z,3.48
2023-04-10T03:32:07.315Z,3.48
2023-04-10T03:33:07.306Z,3.47
2023-04-10T03:34:07.271Z,3.48
2023-04-10T03:35:07.268Z,3.52
2023-04-10T03:36:07.317Z,3.45
2023-04-10T03:37:07.304Z,3.36
2023-04-10T03:38:07.251Z,3.36
2023-04-10T03:39:07.230Z,3.36
2023-04-10T03:40:07.230Z,3.39
2023-04-10T03:41:07.217Z,3.48
2023-04-10T03:42:07.281Z,3.51
2023-04-10T03:43:07.209Z,3.50
2023-04-10T03:44:07.225Z,3.51
2023-04-10T03:45:07.175Z,3.58
2023-04-10T03:46:07.193Z,3.58
2023-04-10T03:47:07.238Z,3.55
2023-04-10T03:48:07.253Z,3.60
2023-04-10T03:49:07.163Z,3.58
2023-04-10T03:50:07.169Z,3.52
2023-04-10T03:51:07.103Z,3.50
2023-04-10T03:52:07.095Z,3.57
2023-04-10T03:53:07.135Z,3.62
2023-04-10T03:54:07.111Z,3.62
2023-04-10T03:55:07.120Z,3.60
2023-04-10T03:56:07.090Z,3.69
2023-04-10T03:57:07.068Z,3.54
2023-04-10T03:58:07.060Z,3.54
2023-04-10T03:59:07.073Z,3.60
2023-04-10T04:00:07.078Z,3.58
2023-04-10T04:01:07.045Z,3.55
2023-04-10T04:02:07.164Z,3.60
2023-04-10T04:03:07.132Z,3.66
2023-04-10T04:04:07.169Z,3.60
2023-04-10T04:05:07.053Z,3.73
2023-04-10T04:06:06.981Z,3.76
2023-04-10T04:07:06.972Z,3.80
2023-04-10T04:08:06.995Z,3.68
2023-04-10T04:09:06.947Z,3.66
2023-04-10T04:10:06.927Z,3.69
2023-04-10T04:11:06.923Z,3.58
2023-04-10T04:12:07.013Z,3.60
2023-04-10T04:13:06.916Z,3.57
2023-04-10T04:14:06.947Z,3.54
2023-04-10T04:15:06.900Z,3.55
2023-04-10T04:16:06.950Z,3.65
2023-04-10T04:17:06.886Z,3.58
2023-04-10T04:18:06.908Z,3.54
2023-04-10T04:19:06.848Z,3.55
2023-04-10T04:20:06.857Z,3.45
2023-04-10T04:21:06.833Z,3.57
2023-04-10T04:22:06.855Z,3.57
2023-04-10T04:23:06.793Z,3.52
2023-04-10T04:24:06.877Z,3.47
2023-04-10T04:25:06.808Z,3.54
2023-04-10T04:26:06.806Z,3.52
2023-04-10T04:27:06.798Z,3.50
2023-04-10T04:28:06.777Z,3.54
2023-04-10T04:29:06.804Z,3.54
2023-04-10T04:30:06.743Z,3.55
2023-04-10T04:31:06.761Z,3.55
2023-04-10T04:32:06.780Z,3.58
2023-04-10T04:33:06.759Z,3.60
2023-04-10T04:34:06.691Z,3.51
2023-04-10T04:35:06.744Z,3.48
2023-04-10T04:36:06.707Z,3.55
2023-04-10T04:37:06.710Z,3.52
2023-04-10T04:38:06.667Z,3.60
2023-04-10T04:39:06.647Z,3.58
2023-04-10T04:40:06.640Z,3.57
2023-04-10T04:41:06.750Z,3.58
2023-04-10T04:42:06.621Z,3.58
2023-04-10T04:43:06.620Z,3.55
2023-04-10T04:44:06.600Z,3.55
2023-04-10T04:45:06.600Z,3.54
2023-04-10T04:46:06.642Z,3.50
2023-04-10T04:47:06.614Z,3.55
2023-04-10T04:48:06.587Z,3.60
2023-04-10T04:49:06.563Z,3.61
2023-04-10T04:50:06.563Z,3.68
2023-04-10T04:51:06.545Z,3.65
2023-04-10T04:52:06.590Z,3.69
2023-04-10T04:53:08.020Z,3.73
2023-04-10T04:54:07.527Z,3.76
2023-04-10T04:55:06.519Z,3.83
2023-04-10T04:56:06.495Z,3.84
2023-04-10T04:57:06.506Z,3.88
2023-04-10T04:58:06.504Z,3.91
2023-04-10T04:59:06.488Z,3.96
2023-04-10T05:00:06.473Z,4.04
2023-04-10T05:01:06.496Z,4.09
2023-04-10T05:02:06.531Z,4.18
2023-04-10T05:03:06.573Z,4.24
2023-04-10T05:04:06.554Z,4.33
2023-04-10T05:05:06.434Z,4.37
2023-04-10T05:06:06.436Z,4.45
2023-04-10T05:07:06.385Z,4.42
2023-04-10T05:08:06.395Z,4.65
2023-04-10T05:09:06.352Z,4.84
2023-04-10T05:10:06.326Z,5.13
2023-04-10T05:11:06.361Z,5.61
2023-04-10T05:12:06.347Z,5.79
2023-04-10T05:13:06.380Z,6.03
2023-04-10T05:14:06.328Z,6.33
2023-04-10T05:15:06.316Z,6.54
2023-04-10T05:16:06.327Z,6.77
2023-04-10T05:17:06.272Z,6.80
2023-04-10T05:18:06.371Z,7.21
2023-04-10T05:19:06.274Z,7.31
2023-04-10T05:20:06.238Z,7.42
2023-04-10T05:21:06.262Z,7.28
2023-04-10T05:22:06.250Z,7.10
2023-04-10T05:23:06.245Z,7.25
2023-04-10T05:24:06.230Z,7.58
2023-04-10T05:25:06.220Z,8.04
2023-04-10T05:26:06.191Z,8.38
2023-04-10T05:27:06.183Z,8.80
2023-04-10T05:28:06.182Z,8.95
2023-04-10T05:29:06.197Z,8.91
2023-04-10T05:30:06.142Z,8.62
2023-04-10T05:31:06.173Z,8.62
2023-04-10T05:32:06.138Z,8.96
2023-04-10T05:33:06.140Z,9.40
2023-04-10T05:34:06.123Z,9.57
2023-04-10T05:35:06.140Z,9.54
2023-04-10T05:36:06.108Z,9.40
2023-04-10T05:37:06.088Z,9.36
2023-04-10T05:38:06.084Z,9.68
2023-04-10T05:39:06.061Z,10.01
2023-04-10T05:40:06.057Z,10.30
2023-04-10T05:41:06.086Z,10.38
2023-04-10T05:42:06.029Z,10.41
2023-04-10T05:43:06.009Z,10.47
2023-04-10T05:44:06.054Z,10.15
2023-04-10T05:45:05.994Z,9.99
2023-04-10T05:46:06.095Z,9.79
2023-04-10T05:47:07.106Z,9.50
2023-04-10T05:48:06.026Z,9.43
2023-04-10T05:49:06.059Z,9.35
2023-04-10T05:50:05.936Z,9.42
2023-04-10T05:51:06.968Z,9.64
2023-04-10T05:52:06.024Z,9.74
2023-04-10T05:53:05.936Z,9.83
2023-04-10T05:54:05.908Z,9.56
2023-04-10T05:55:05.909Z,9.56
2023-04-10T05:56:05.951Z,9.39
2023-04-10T05:57:05.941Z,9.60
2023-04-10T05:58:05.848Z,9.32
2023-04-10T05:59:05.862Z,9.76
2023-04-10T06:00:05.854Z,10.14
2023-04-10T06:01:05.863Z,10.60
2023-04-10T06:02:05.844Z,11.02
2023-04-10T06:03:05.893Z,11.33
2023-04-10T06:04:05.888Z,11.75
2023-04-10T06:05:05.876Z,11.98
2023-04-10T06:06:05.788Z,12.24
2023-04-10T06:07:05.799Z,12.59
2023-04-10T06:08:05.766Z,13.08
2023-04-10T06:09:05.778Z,13.57
2023-04-10T06:10:05.757Z,14.04
2023-04-10T06:11:05.723Z,14.06
2023-04-10T06:12:05.729Z,14.18
2023-04-10T06:13:08.703Z,14.32
2023-04-10T06:14:05.756Z,14.00
2023-04-10T06:15:05.713Z,13.81
2023-04-10T06:16:05.769Z,13.48
2023-04-10T06:17:05.660Z,13.44
2023-04-10T06:18:05.677Z,13.42
2023-04-10T06:19:05.787Z,13.38
2023-04-10T06:20:05.710Z,13.60
2023-04-10T06:21:05.642Z,13.70
2023-04-10T06:22:05.607Z,13.85
2023-04-10T06:23:05.645Z,13.82
2023-04-10T06:24:05.652Z,13.91
2023-04-10T06:25:05.650Z,13.97
2023-04-10T06:26:06.127Z,13.95
2023-04-10T06:27:05.571Z,13.73
2023-04-10T06:28:05.572Z,13.51
2023-04-10T06:29:05.564Z,13.75
2023-04-10T06:30:05.557Z,14.09
2023-04-10T06:31:05.632Z,14.35
2023-04-10T06:32:05.551Z,14.65
2023-04-10T06:33:05.819Z,14.57
2023-04-10T06:34:05.507Z,14.37
2023-04-10T06:35:05.523Z,14.39
2023-04-10T06:36:05.585Z,14.12
2023-04-10T06:37:05.469Z,14.14
2023-04-10T06:38:05.492Z,13.78
2023-04-10T06:39:05.461Z,13.85
2023-04-10T06:40:05.461Z,14.06
2023-04-10T06:41:05.457Z,14.42
2023-04-10T06:42:05.429Z,14.43
2023-04-10T06:43:05.422Z,14.47
2023-04-10T06:44:05.412Z,14.80
2023-04-10T06:45:05.432Z,15.01
2023-04-10T06:46:05.399Z,15.03
2023-04-10T06:47:05.427Z,14.73
2023-04-10T06:48:05.372Z,14.94
2023-04-10T06:49:05.358Z,15.20
2023-04-10T06:50:05.367Z,15.17
2023-04-10T06:51:05.373Z,15.16
2023-04-10T06:52:05.311Z,14.99
2023-04-10T06:53:05.362Z,14.99
2023-04-10T06:54:05.325Z,14.86
2023-04-10T06:55:05.283Z,14.55
2023-04-10T06:56:05.307Z,14.21
2023-04-10T06:57:05.280Z,13.64
2023-04-10T06:58:05.287Z,13.67
2023-04-10T06:59:05.256Z,13.79
2023-04-10T07:00:05.245Z,13.92
2023-04-10T07:01:05.330Z,14.21
2023-04-10T07:02:05.290Z,14.77
2023-04-10T07:03:05.438Z,15.27
2023-04-10T07:04:06.305Z,15.38
2023-04-10T07:05:05.198Z,15.69
2023-04-10T07:06:05.243Z,15.89
2023-04-10T07:07:05.309Z,15.82
2023-04-10T07:08:05.173Z,15.74
2023-04-10T07:09:05.157Z,15.82
2023-04-10T07:10:05.186Z,15.96
2023-04-10T07:11:05.157Z,15.71
2023-04-10T07:12:05.150Z,15.74
2023-04-10T07:13:05.141Z,15.54
2023-04-10T07:14:05.141Z,15.01
2023-04-10T07:15:05.132Z,14.83
2023-04-10T07:16:05.118Z,14.94
2023-04-10T07:17:05.095Z,15.10
2023-04-10T07:18:05.085Z,15.35
2023-04-10T07:19:05.063Z,15.83
2023-04-10T07:20:05.070Z,16.09
2023-04-10T07:21:05.041Z,16.38
2023-04-10T07:22:05.050Z,16.71
2023-04-10T07:23:05.032Z,16.89
2023-04-10T07:24:05.193Z,16.94
2023-04-10T07:25:05.023Z,17.23
2023-04-10T07:26:05.027Z,17.23
2023-04-10T07:27:05.021Z,17.18
2023-04-10T07:28:04.977Z,17.11
2023-04-10T07:29:04.974Z,17.23
2023-04-10T07:30:04.954Z,17.25
2023-04-10T07:31:04.975Z,17.18
2023-04-10T07:32:05.000Z,17.15
2023-04-10T07:33:05.038Z,17.12
2023-04-10T07:34:04.978Z,16.98
2023-04-10T07:35:04.882Z,17.04
2023-04-10T07:36:04.927Z,17.34
2023-04-10T07:37:04.891Z,17.58
2023-04-10T07:38:04.912Z,17.55
2023-04-10T07:39:04.849Z,17.82
2023-04-10T07:40:04.920Z,17.64
2023-04-10T07:41:04.853Z,17.63
2023-04-10T07:42:04.849Z,17.93
2023-04-10T07:43:04.848Z,17.99
2023-04-10T07:44:04.848Z,17.96
2023-04-10T07:45:04.849Z,17.81
2023-04-10T07:46:04.826Z,17.55
2023-04-10T07:47:04.783Z,17.46
2023-04-10T07:48:04.830Z,17.01
2023-04-10T07:49:07.308Z,17.26
2023-04-10T07:50:04.776Z,17.72
2023-04-10T07:51:04.764Z,17.92
2023-04-10T07:52:04.764Z,18.18
2023-04-10T07:53:04.757Z,18.37
2023-04-10T07:54:04.746Z,18.51
2023-04-10T07:55:04.748Z,18.66
2023-04-10T07:56:04.719Z,18.88
2023-04-10T07:57:04.707Z,19.23
2023-04-10T07:58:04.707Z,19.22
2023-04-10T07:59:04.786Z,19.63
2023-04-10T08:00:04.714Z,19.78
2023-04-10T08:01:04.667Z,20.03
2023-04-10T08:02:04.739Z,19.73
2023-04-10T08:03:04.793Z,20.08
2023-04-10T08:04:05.875Z,19.96
2023-04-10T08:05:05.685Z,19.94
2023-04-10T08:06:04.603Z,19.81
2023-04-10T08:07:04.599Z,19.87
2023-04-10T08:08:04.592Z,19.96
2023-04-10T08:09:04.618Z,19.96
2023-04-10T08:10:04.569Z,20.11
2023-04-10T08:11:04.610Z,20.14
2023-04-10T08:12:04.568Z,19.84
2023-04-10T08:13:04.516Z,19.96
2023-04-10T08:14:04.532Z,20.18
2023-04-10T08:15:04.513Z,20.13
2023-04-10T08:16:04.502Z,20.47
2023-04-10T08:17:04.738Z,20.64
2023-04-10T08:18:04.529Z,20.59
2023-04-10T08:19:04.469Z,20.74
2023-04-10T08:20:04.477Z,20.51
2023-04-10T08:21:04.508Z,20.28
2023-04-10T08:22:04.497Z,20.14
2023-04-10T08:23:17.195Z,19.76
2023-04-10T08:24:05.432Z,19.39
2023-04-10T08:25:04.411Z,19.48
2023-04-10T08:26:04.417Z,19.55
2023-04-10T08:27:04.397Z,19.48
2023-04-10T08:28:04.418Z,19.66
2023-04-10T08:29:05.385Z,19.56
2023-04-10T08:30:04.360Z,19.22
2023-04-10T08:31:36.288Z,18.95
2023-04-10T08:32:04.365Z,18.69
2023-04-10T08:33:04.380Z,18.70
2023-04-10T08:34:04.352Z,19.11
2023-04-10T08:35:05.342Z,19.04
2023-04-10T08:36:04.336Z,19.14
2023-04-10T08:37:04.336Z,19.22
2023-04-10T08:38:13.433Z,19.39
2023-04-10T08:39:05.308Z,19.74
2023-04-10T08:40:04.338Z,19.58
2023-04-10T08:41:04.291Z,19.41
2023-04-10T08:42:04.253Z,19.28
2023-04-10T08:43:04.247Z,19.43
2023-04-10T08:44:04.235Z,19.68
2023-04-10T08:45:04.245Z,19.94
2023-04-10T08:46:04.252Z,20.16
2023-04-10T08:47:04.216Z,20.29
2023-04-10T08:48:04.271Z,20.33
2023-04-10T08:49:04.208Z,20.47
2023-04-10T08:50:04.192Z,20.59
2023-04-10T08:51:04.361Z,20.48
2023-04-10T08:52:04.159Z,20.35
2023-04-10T08:53:04.141Z,19.88
2023-04-10T08:54:04.130Z,19.86
2023-04-10T08:55:04.136Z,19.71
2023-04-10T08:56:04.201Z,19.76
2023-04-10T08:57:04.136Z,19.99
2023-04-10T08:58:04.103Z,20.35
2023-04-10T08:59:04.080Z,20.18
2023-04-10T09:01:06.136Z,19.81
2023-04-10T09:02:04.167Z,19.78
2023-04-10T09:03:04.146Z,20.02
2023-04-10T09:04:04.109Z,20.36
2023-04-10T09:05:04.018Z,20.38
2023-04-10T09:06:04.018Z,20.32
2023-04-10T09:07:04.020Z,20.47
2023-04-10T09:08:04.013Z,20.51
2023-04-10T09:09:03.996Z,20.33
2023-04-10T09:10:03.986Z,20.61
2023-04-10T09:11:04.016Z,20.17
2023-04-10T09:12:04.036Z,19.74
2023-04-10T09:13:03.952Z,19.88
2023-04-10T09:14:03.929Z,19.41
2023-04-10T09:15:03.962Z,18.88
2023-04-10T09:16:04.022Z,19.08
2023-04-10T09:17:03.918Z,19.10
2023-04-10T09:18:03.936Z,18.85
2023-04-10T09:19:06.383Z,19.07
2023-04-10T09:20:04.865Z,19.29
2023-04-10T09:21:03.851Z,19.10
2023-04-10T09:22:04.868Z,18.72
2023-04-10T09:23:03.832Z,18.85
2023-04-10T09:24:03.828Z,19.18
2023-04-10T09:25:03.827Z,18.81
2023-04-10T09:26:03.808Z,18.44
2023-04-10T09:27:03.792Z,18.39
2023-04-10T09:28:03.805Z,18.39
2023-04-10T09:29:03.779Z,18.42
2023-04-10T09:30:03.820Z,18.48
2023-04-10T09:31:03.789Z,18.45
2023-04-10T09:32:03.760Z,18.39
2023-04-10T09:33:04.119Z,18.18
2023-04-10T09:34:03.741Z,18.21
2023-04-10T09:35:03.696Z,18.63
2023-04-10T09:36:03.735Z,18.75
2023-04-10T09:37:03.693Z,18.82
2023-04-10T09:38:03.705Z,18.85
2023-04-10T09:39:03.669Z,18.66
2023-04-10T09:40:03.640Z,18.75
2023-04-10T09:41:03.677Z,18.66
2023-04-10T09:42:03.684Z,18.21
2023-04-10T09:43:03.659Z,17.93
2023-04-10T09:44:03.641Z,18.17
2023-04-10T09:45:03.617Z,17.97
2023-04-10T09:46:03.650Z,17.97
2023-04-10T09:47:03.642Z,17.96
2023-04-10T09:48:03.662Z,17.92
2023-04-10T09:49:03.637Z,17.95
2023-04-10T09:50:03.602Z,17.99
2023-04-10T09:51:03.576Z,18.03
2023-04-10T09:52:03.535Z,18.05
2023-04-10T09:53:03.540Z,18.23
2023-04-10T09:54:03.538Z,18.37
2023-04-10T09:55:03.531Z,18.33
2023-04-10T09:56:03.491Z,18.55
2023-04-10T09:57:03.478Z,18.55
2023-04-10T09:58:03.493Z,18.35
2023-04-10T09:59:03.485Z,18.48
2023-04-10T10:00:03.483Z,18.26
2023-04-10T10:01:03.500Z,17.95
2023-04-10T10:02:03.460Z,17.95
2023-04-10T10:03:03.770Z,17.81
2023-04-10T10:04:03.428Z,17.84
2023-04-10T10:05:03.529Z,17.89
2023-04-10T10:06:03.415Z,17.95
2023-04-10T10:07:03.383Z,17.74
2023-04-10T10:08:03.385Z,17.66
2023-04-10T10:09:03.380Z,17.71
2023-04-10T10:10:03.386Z,17.89
2023-04-10T10:11:03.393Z,17.87
2023-04-10T10:12:03.375Z,17.96
2023-04-10T10:13:03.333Z,17.63
2023-04-10T10:14:03.353Z,17.43
2023-04-10T10:15:03.302Z,16.96
2023-04-10T10:16:03.335Z,16.81
2023-04-10T10:17:03.348Z,16.97
2023-04-10T10:18:03.373Z,17.04
2023-04-10T10:19:03.282Z,17.04
2023-04-10T10:20:03.275Z,17.30
2023-04-10T10:21:03.284Z,17.44
2023-04-10T10:22:03.232Z,17.48
2023-04-10T10:23:03.244Z,17.52
2023-04-10T10:24:03.264Z,17.64
2023-04-10T10:25:03.242Z,17.68
2023-04-10T10:26:03.943Z,17.51
2023-04-10T10:27:03.247Z,17.51
2023-04-10T10:28:03.199Z,17.44
2023-04-10T10:29:03.161Z,17.52
2023-04-10T10:30:08.540Z,17.48
2023-04-10T10:31:05.251Z,17.48
2023-04-10T10:32:03.176Z,17.41
2023-04-10T10:33:03.172Z,17.44
2023-04-10T10:34:03.171Z,17.38
2023-04-10T10:35:03.121Z,17.38
2023-04-10T10:36:03.122Z,17.48
2023-04-10T10:37:03.170Z,17.72
2023-04-10T10:38:03.080Z,17.70
2023-04-10T10:39:03.120Z,17.49
2023-04-10T10:40:03.092Z,17.41
2023-04-10T10:41:03.149Z,17.25
2023-04-10T10:42:03.060Z,17.07
2023-04-10T10:43:03.077Z,17.19
2023-04-10T10:44:03.050Z,17.28
2023-04-10T10:45:03.058Z,17.41
2023-04-10T10:46:03.058Z,17.44
2023-04-10T10:47:03.028Z,17.44
2023-04-10T10:48:03.041Z,17.38
2023-04-10T10:49:03.002Z,17.31
2023-04-10T10:50:02.981Z,17.16
2023-04-10T10:51:02.989Z,17.12
2023-04-10T10:52:02.984Z,17.00
2023-04-10T10:53:03.975Z,16.96
2023-04-10T10:54:02.960Z,17.11
2023-04-10T10:55:02.957Z,17.21
2023-04-10T10:56:02.941Z,17.22
2023-04-10T10:57:02.965Z,17.25
2023-04-10T10:58:02.886Z,17.31
2023-04-10T10:59:02.883Z,17.26
2023-04-10T11:00:02.884Z,17.28
2023-04-10T11:01:02.918Z,17.18
2023-04-10T11:02:02.948Z,17.30
2023-04-10T11:03:03.122Z,17.23
2023-04-10T11:04:03.100Z,17.23
2023-04-10T11:05:02.905Z,17.25
2023-04-10T11:06:02.943Z,17.44
2023-04-10T11:07:02.853Z,17.54
2023-04-10T11:08:02.824Z,17.56
2023-04-10T11:09:02.817Z,17.48
2023-04-10T11:10:02.878Z,17.43
2023-04-10T11:11:02.849Z,17.43
2023-04-10T11:12:02.771Z,17.58
2023-04-10T11:13:02.781Z,17.51
2023-04-10T11:14:02.767Z,17.48
2023-04-10T11:15:02.733Z,17.48
2023-04-10T11:16:02.794Z,17.49
2023-04-10T11:17:02.914Z,17.56
2023-04-10T11:18:02.708Z,17.48
2023-04-10T11:19:12.843Z,17.37
2023-04-10T11:20:04.678Z,17.31
2023-04-10T11:21:02.656Z,17.51
2023-04-10T11:22:02.676Z,17.58
2023-04-10T11:23:02.637Z,17.58
2023-04-10T11:24:02.633Z,17.51
2023-04-10T11:25:02.817Z,17.51
2023-04-10T11:26:02.599Z,17.44
2023-04-10T11:27:02.628Z,17.49
2023-04-10T11:28:02.619Z,17.52
2023-04-10T11:29:02.564Z,17.63
2023-04-10T11:30:02.558Z,17.71
2023-04-10T11:31:02.574Z,17.68
2023-04-10T11:32:02.591Z,17.56
2023-04-10T11:33:02.723Z,17.43
2023-04-10T11:34:02.538Z,17.22
2023-04-10T11:35:04.823Z,17.25
2023-04-10T11:36:03.549Z,17.28
2023-04-10T11:37:02.517Z,17.18
2023-04-10T11:38:02.454Z,17.30
2023-04-10T11:39:03.535Z,17.41
2023-04-10T11:40:02.466Z,17.23
2023-04-10T11:41:02.434Z,17.30
2023-04-10T11:42:02.435Z,17.28
2023-04-10T11:43:02.473Z,17.31
2023-04-10T11:44:02.452Z,17.52
2023-04-10T11:45:02.467Z,17.68
2023-04-10T11:46:02.521Z,17.66
2023-04-10T11:47:02.417Z,17.75
2023-04-10T11:48:02.407Z,17.78
2023-04-10T11:49:02.363Z,17.89
2023-04-10T11:50:02.351Z,18.03
2023-04-10T11:51:02.379Z,17.92
2023-04-10T11:52:02.343Z,18.07
2023-04-10T11:53:02.334Z,17.92
2023-04-10T11:54:02.318Z,17.84
2023-04-10T11:55:02.303Z,18.07
2023-04-10T11:56:02.324Z,17.97
2023-04-10T11:57:02.318Z,18.05
2023-04-10T11:58:02.329Z,18.05
2023-04-10T11:59:02.292Z,18.17
2023-04-10T12:00:02.257Z,18.35
2023-04-10T12:01:02.248Z,18.55
2023-04-10T12:02:02.407Z,18.52
2023-04-10T12:03:02.563Z,18.41
2023-04-10T12:04:02.318Z,18.33
2023-04-10T12:05:02.414Z,18.26
2023-04-10T12:06:02.187Z,18.03
2023-04-10T12:07:02.226Z,17.93
2023-04-10T12:08:02.232Z,17.84
2023-04-10T12:09:02.295Z,18.00
2023-04-10T12:10:02.180Z,18.14
2023-04-10T12:11:02.158Z,18.02
2023-04-10T12:12:02.147Z,18.15
2023-04-10T12:13:02.133Z,18.15
2023-04-10T12:14:02.115Z,18.25
2023-04-10T12:15:02.227Z,18.33
2023-04-10T12:16:02.164Z,18.36
2023-04-10T12:17:02.101Z,18.39
2023-04-10T12:18:02.089Z,18.60
2023-04-10T12:19:02.068Z,18.60
2023-04-10T12:20:02.056Z,18.62
2023-04-10T12:21:02.044Z,18.65
2023-04-10T12:22:02.060Z,18.65
2023-04-10T12:23:02.022Z,18.58
2023-04-10T12:24:02.023Z,18.51
2023-04-10T12:25:02.022Z,18.44
2023-04-10T12:26:02.007Z,18.32
2023-04-10T12:27:02.014Z,18.39
2023-04-10T12:28:01.978Z,18.48
2023-04-10T12:29:01.984Z,18.45
2023-04-10T12:30:02.007Z,18.32
2023-04-10T12:31:01.978Z,17.99
2023-04-10T12:32:01.928Z,17.79
2023-04-10T12:33:01.957Z,17.90
2023-04-10T12:34:01.933Z,17.90
2023-04-10T12:35:01.960Z,17.89
2023-04-10T12:36:01.971Z,17.93
2023-04-10T12:37:01.903Z,17.89
2023-04-10T12:38:01.904Z,17.93
2023-04-10T12:39:01.863Z,17.87
2023-04-10T12:40:01.910Z,17.87
2023-04-10T12:41:01.913Z,17.95
2023-04-10T12:42:01.841Z,17.97
2023-04-10T12:43:01.864Z,18.08
2023-04-10T12:44:01.809Z,18.20
2023-04-10T12:45:01.812Z,18.33
2023-04-10T12:46:01.888Z,18.36
2023-04-10T12:47:01.936Z,18.32
2023-04-10T12:48:01.814Z,18.20
2023-04-10T12:49:01.888Z,18.35
2023-04-10T12:50:01.772Z,18.32
2023-04-10T12:51:01.768Z,18.37
2023-04-10T12:52:01.750Z,18.47
2023-04-10T12:53:01.746Z,18.51
2023-04-10T12:54:01.744Z,18.39
2023-04-10T12:55:01.737Z,18.30
2023-04-10T12:56:01.688Z,18.35
2023-04-10T12:57:01.775Z,18.29
2023-04-10T12:58:01.681Z,18.29
2023-04-10T12:59:01.691Z,18.36
2023-04-10T13:00:01.718Z,18.32
2023-04-10T13:01:01.664Z,18.36
2023-04-10T13:02:01.722Z,18.32
2023-04-10T13:03:01.878Z,18.20
2023-04-10T13:04:02.732Z,17.96
2023-04-10T13:05:01.624Z,17.99